Station History

Weather Underground - logo

Station Historical Data
Daily Summary for July 22, 2017 Units:  English    Metric   Both
« Previous Day
Next Day »
Daily Weekly Monthly Yearly Custom
  High: Low: Average:
Temperature: 97.7 °F 65.6 °F 79 °F
Dew Point: 66.3 °F 57.0 °F 61.7 °F
Humidity: 78 % 30 % 58 %
Wind Speed: 5.8 mph 0.0 mph 1.2 mph
Wind Gust: 5.8 mph - -
Wind:- - SSW
Pressure: 29.87 in 29.75 in -
Precipitation: 0.00 in    
Historical Graphs
 
 
Tabular Data for July 22, 2017
Time Temperature Dew Point Pressure Wind Wind Speed Wind Gust Humidity Rainfall Rate (Hourly)
00:00 74.4 °F 60.1 °F 29.83 in Calm     61 % 0.00 in
00:05 74.2 °F 59.9 °F 29.82 in Calm     61 % 0.00 in
00:10 74.0 °F 59.7 °F 29.82 in Calm     61 % 0.00 in
00:15 74.0 °F 61.0 °F 29.82 in Calm     64 % 0.00 in
00:20 73.7 °F 60.8 °F 29.82 in Calm     64 % 0.00 in
00:25 73.5 °F 61.4 °F 29.82 in Calm     66 % 0.00 in
00:30 73.2 °F 62.0 °F 29.82 in Calm     68 % 0.00 in
00:35 72.9 °F 61.3 °F 29.83 in Calm     67 % 0.00 in
00:40 72.7 °F 61.1 °F 29.83 in Calm     67 % 0.00 in
00:45 72.5 °F 60.5 °F 29.83 in Calm     66 % 0.00 in
00:50 72.3 °F 59.9 °F 29.83 in Calm     65 % 0.00 in
00:55 72.3 °F 59.9 °F 29.83 in Calm     65 % 0.00 in
01:00 72.2 °F 59.8 °F 29.83 in Calm     65 % 0.00 in
01:05 72.0 °F 60.4 °F 29.83 in Calm     67 % 0.00 in
01:10 71.8 °F 60.2 °F 29.83 in Calm     67 % 0.00 in
01:15 71.7 °F 61.0 °F 29.82 in Calm     69 % 0.00 in
01:20 71.5 °F 61.2 °F 29.82 in Calm     70 % 0.00 in
01:25 71.2 °F 61.3 °F 29.82 in Calm     71 % 0.00 in
01:30 71.1 °F 60.8 °F 29.82 in Calm     70 % 0.00 in
01:35 71.0 °F 61.5 °F 29.82 in Calm     72 % 0.00 in
01:40 71.0 °F 61.1 °F 29.82 in Calm     71 % 0.00 in
01:45 70.8 °F 60.9 °F 29.82 in Calm     71 % 0.00 in
01:50 70.8 °F 60.9 °F 29.82 in Calm     71 % 0.00 in
01:55 70.7 °F 60.8 °F 29.82 in Calm     71 % 0.00 in
02:00 70.7 °F 60.4 °F 29.82 in Calm     70 % 0.00 in
02:05 70.6 °F 59.9 °F 29.82 in Calm     69 % 0.00 in
02:10 70.6 °F 59.9 °F 29.82 in Calm     69 % 0.00 in
02:15 70.7 °F 59.2 °F 29.82 in Calm     67 % 0.00 in
02:20 70.6 °F 58.7 °F 29.82 in Calm     66 % 0.00 in
02:25 70.6 °F 59.1 °F 29.82 in Calm     67 % 0.00 in
02:30 70.4 °F 59.3 °F 29.82 in Calm     68 % 0.00 in
02:35 70.1 °F 59.9 °F 29.82 in Calm     70 % 0.00 in
02:40 69.9 °F 59.7 °F 29.82 in Calm     70 % 0.00 in
02:45 69.7 °F 59.5 °F 29.82 in Calm     70 % 0.00 in
02:50 69.5 °F 59.3 °F 29.82 in Calm     70 % 0.00 in
02:55 69.5 °F 59.7 °F 29.82 in Calm     71 % 0.00 in
03:00 69.4 °F 59.6 °F 29.82 in Calm     71 % 0.00 in
03:05 69.2 °F 59.4 °F 29.82 in Calm     71 % 0.00 in
03:10 69.0 °F 59.2 °F 29.82 in Calm     71 % 0.00 in
03:15 68.8 °F 59.0 °F 29.82 in Calm     71 % 0.00 in
03:20 69.1 °F 58.9 °F 29.82 in Calm     70 % 0.00 in
03:21 69.2 °F 59.0 °F 29.82 in Calm     70 % 0.00 in
03:26 69.3 °F 59.1 °F 29.82 in Calm     70 % 0.00 in
03:32 69.2 °F 59.4 °F 29.82 in Calm     71 % 0.00 in
03:37 68.8 °F 58.6 °F 29.82 in Calm     70 % 0.00 in
03:42 68.7 °F 58.5 °F 29.82 in Calm     70 % 0.00 in
03:47 68.6 °F 58.8 °F 29.82 in Calm     71 % 0.00 in
03:52 68.4 °F 58.6 °F 29.82 in Calm     71 % 0.00 in
03:57 68.3 °F 58.9 °F 29.82 in Calm     72 % 0.00 in
04:02 68.2 °F 59.2 °F 29.82 in Calm     73 % 0.00 in
04:07 67.7 °F 59.1 °F 29.82 in Calm     74 % 0.00 in
04:12 67.3 °F 59.1 °F 29.82 in Calm     75 % 0.00 in
04:17 67.0 °F 59.2 °F 29.82 in Calm     76 % 0.00 in
04:22 66.9 °F 59.1 °F 29.82 in Calm     76 % 0.00 in
04:27 67.1 °F 59.3 °F 29.82 in Calm     76 % 0.00 in
04:32 67.0 °F 59.2 °F 29.82 in Calm     76 % 0.00 in
04:37 67.0 °F 59.2 °F 29.82 in Calm     76 % 0.00 in
04:42 66.9 °F 59.1 °F 29.83 in Calm     76 % 0.00 in
04:47 66.9 °F 59.1 °F 29.83 in Calm     76 % 0.00 in
04:52 66.8 °F 59.0 °F 29.83 in Calm     76 % 0.00 in
04:57 66.6 °F 58.8 °F 29.83 in Calm     76 % 0.00 in
05:02 66.5 °F 59.1 °F 29.83 in Calm     77 % 0.00 in
05:07 66.3 °F 59.2 °F 29.83 in Calm     78 % 0.00 in
05:12 66.1 °F 59.0 °F 29.83 in Calm     78 % 0.00 in
05:17 66.0 °F 58.6 °F 29.83 in Calm     77 % 0.00 in
05:22 66.1 °F 58.7 °F 29.83 in ESE 1.2 mph   77 % 0.00 in
05:27 66.1 °F 58.7 °F 29.83 in ESE 1.2 mph   77 % 0.00 in
05:32 66.0 °F 58.2 °F 29.83 in Calm     76 % 0.00 in
05:37 65.9 °F 58.1 °F 29.83 in Calm   0.1 mph 76 % 0.00 in
05:42 65.8 °F 58.0 °F 29.83 in Calm     76 % 0.00 in
05:47 65.7 °F 57.9 °F 29.84 in Calm     76 % 0.00 in
05:52 65.7 °F 57.9 °F 29.84 in Calm     76 % 0.00 in
05:57 65.7 °F 57.9 °F 29.84 in Calm     76 % 0.00 in
06:02 65.6 °F 57.5 °F 29.84 in Calm     75 % 0.00 in
06:07 65.7 °F 57.6 °F 29.84 in Calm     75 % 0.00 in
06:12 65.8 °F 57.7 °F 29.84 in ESE 1.2 mph 1.2 mph 75 % 0.00 in
06:17 65.9 °F 57.4 °F 29.84 in ESE 1.2 mph   74 % 0.00 in
06:22 66.0 °F 57.1 °F 29.84 in ESE 1.2 mph   73 % 0.00 in
06:27 66.1 °F 57.2 °F 29.84 in Calm     73 % 0.00 in
06:32 66.1 °F 57.2 °F 29.84 in ESE 1.0 mph   73 % 0.00 in
06:37 66.3 °F 57.0 °F 29.85 in Calm     72 % 0.00 in
06:42 66.5 °F 57.2 °F 29.85 in Calm     72 % 0.00 in
06:47 66.8 °F 57.5 °F 29.85 in Calm     72 % 0.00 in
06:52 67.1 °F 57.8 °F 29.85 in ESE 1.2 mph 1.2 mph 72 % 0.00 in
06:57 67.5 °F 57.8 °F 29.85 in SE 2.3 mph 2.3 mph 71 % 0.00 in
07:02 68.2 °F 58.0 °F 29.85 in SE 1.2 mph 1.2 mph 70 % 0.00 in
07:07 69.2 °F 58.2 °F 29.85 in Calm   0.1 mph 68 % 0.00 in
07:12 70.2 °F 58.3 °F 29.85 in South 1.2 mph 1.2 mph 66 % 0.00 in
07:17 71.0 °F 58.6 °F 29.86 in ESE 2.3 mph 2.3 mph 65 % 0.00 in
07:22 71.6 °F 58.8 °F 29.86 in Calm   0.1 mph 64 % 0.00 in
07:27 72.2 °F 59.3 °F 29.86 in SE 1.2 mph   64 % 0.00 in
07:32 72.8 °F 59.5 °F 29.86 in ESE 1.2 mph 1.2 mph 63 % 0.00 in
07:37 73.2 °F 59.4 °F 29.86 in SSE 3.0 mph 3.0 mph 62 % 0.00 in
07:42 73.6 °F 59.8 °F 29.87 in SE 1.2 mph 1.2 mph 62 % 0.00 in
07:47 74.1 °F 59.8 °F 29.87 in East 2.3 mph 2.3 mph 61 % 0.00 in
07:53 74.3 °F 60.0 °F 29.86 in ENE 3.5 mph 3.5 mph 61 % 0.00 in
07:58 74.7 °F 60.8 °F 29.87 in SE 2.3 mph 2.3 mph 62 % 0.00 in
08:03 75.1 °F 61.2 °F 29.87 in ESE 2.3 mph 2.3 mph 62 % 0.00 in
08:08 75.3 °F 60.9 °F 29.87 in SE 3.5 mph 3.5 mph 61 % 0.00 in
08:13 75.5 °F 61.1 °F 29.87 in East 3.5 mph 3.5 mph 61 % 0.00 in
08:18 76.0 °F 61.1 °F 29.87 in ENE 2.3 mph 2.3 mph 60 % 0.00 in
08:23 76.4 °F 61.5 °F 29.87 in South 1.2 mph 1.2 mph 60 % 0.00 in
08:28 77.2 °F 61.8 °F 29.87 in SSE 3.0 mph 3.0 mph 59 % 0.00 in
08:29 77.1 °F 61.7 °F 29.87 in SSW 3.5 mph 3.5 mph 59 % 0.00 in
08:34 77.3 °F 61.9 °F 29.87 in SSE 4.0 mph 4.0 mph 59 % 0.00 in
08:39 77.7 °F 62.2 °F 29.87 in ESE 3.5 mph 3.5 mph 59 % 0.00 in
08:44 78.0 °F 62.5 °F 29.87 in East 2.3 mph 2.3 mph 59 % 0.00 in
08:49 78.3 °F 62.3 °F 29.87 in East 2.0 mph 2.0 mph 58 % 0.00 in
08:54 78.8 °F 62.8 °F 29.87 in East 3.5 mph 3.5 mph 58 % 0.00 in
08:59 79.4 °F 62.3 °F 29.87 in South 2.3 mph 2.3 mph 56 % 0.00 in
09:04 80.1 °F 63.0 °F 29.86 in South 2.3 mph 2.3 mph 56 % 0.00 in
09:09 80.8 °F 63.1 °F 29.87 in SSE 2.3 mph 2.3 mph 55 % 0.00 in
09:14 81.4 °F 63.2 °F 29.87 in SSE 1.2 mph 1.2 mph 54 % 0.00 in
09:19 81.7 °F 62.4 °F 29.87 in East 2.3 mph 2.3 mph 52 % 0.00 in
09:24 81.6 °F 62.3 °F 29.87 in ESE 3.5 mph 3.5 mph 52 % 0.00 in
09:29 81.5 °F 63.3 °F 29.86 in North 1.2 mph   54 % 0.00 in
09:31 81.7 °F 64.0 °F 29.86 in North 1.2 mph 1.2 mph 55 % 0.00 in
09:36 82.3 °F 64.5 °F 29.86 in SE 2.3 mph 2.3 mph 55 % 0.00 in
09:41 82.8 °F 63.4 °F 29.86 in NNW 2.3 mph 2.3 mph 52 % 0.00 in
09:46 82.4 °F 63.5 °F 29.86 in NNW 2.3 mph 2.3 mph 53 % 0.00 in
09:52 82.8 °F 63.4 °F 29.86 in South 1.2 mph 1.2 mph 52 % 0.00 in
09:57 83.1 °F 63.1 °F 29.86 in SE 4.6 mph 4.6 mph 51 % 0.00 in
10:02 83.5 °F 63.5 °F 29.86 in NNE 3.5 mph 3.5 mph 51 % 0.00 in
10:07 83.7 °F 63.1 °F 29.86 in ENE 2.3 mph 2.3 mph 50 % 0.00 in
10:12 83.8 °F 63.7 °F 29.86 in SE 1.0 mph   51 % 0.00 in
10:17 84.3 °F 63.1 °F 29.86 in North 2.3 mph 2.3 mph 49 % 0.00 in
10:22 84.2 °F 62.4 °F 29.85 in WNW 3.0 mph 3.0 mph 48 % 0.00 in
10:27 84.3 °F 64.2 °F 29.86 in SSE 1.2 mph 1.2 mph 51 % 0.00 in
10:32 84.8 °F 62.9 °F 29.86 in NNE 3.5 mph 3.5 mph 48 % 0.00 in
10:37 85.2 °F 63.9 °F 29.86 in SSE 2.3 mph 2.3 mph 49 % 0.00 in
10:42 85.8 °F 65.0 °F 29.86 in SSE 3.5 mph 3.5 mph 50 % 0.00 in
10:47 85.7 °F 64.3 °F 29.86 in SSE 3.5 mph 3.5 mph 49 % 0.00 in
10:52 86.0 °F 64.0 °F 29.86 in South 3.5 mph 3.5 mph 48 % 0.00 in
10:57 86.5 °F 64.5 °F 29.86 in NW 2.3 mph 2.3 mph 48 % 0.00 in
11:02 86.1 °F 63.5 °F 29.86 in North 3.5 mph 3.5 mph 47 % 0.00 in
11:07 86.0 °F 64.6 °F 29.86 in NNW 2.3 mph 2.3 mph 49 % 0.00 in
11:12 86.4 °F 63.2 °F 29.86 in NNW 2.3 mph 2.3 mph 46 % 0.00 in
11:17 86.9 °F 64.8 °F 29.86 in NNW 2.3 mph 2.3 mph 48 % 0.00 in
11:22 87.2 °F 63.9 °F 29.86 in SSE 1.2 mph 1.2 mph 46 % 0.00 in
11:27 87.2 °F 63.9 °F 29.85 in NW 1.2 mph 1.2 mph 46 % 0.00 in
11:32 87.1 °F 63.2 °F 29.85 in NW 2.3 mph 2.3 mph 45 % 0.00 in
11:37 87.6 °F 63.6 °F 29.85 in West 3.5 mph 3.5 mph 45 % 0.00 in
11:42 88.1 °F 63.4 °F 29.85 in West 3.5 mph 3.5 mph 44 % 0.00 in
11:47 87.9 °F 63.9 °F 29.85 in NE 1.2 mph 1.2 mph 45 % 0.00 in
11:53 88.2 °F 62.9 °F 29.85 in NW 3.5 mph 3.5 mph 43 % 0.00 in
11:58 88.5 °F 65.1 °F 29.85 in SE 1.2 mph 1.2 mph 46 % 0.00 in
12:03 89.0 °F 64.9 °F 29.85 in NW 1.2 mph   45 % 0.00 in
12:08 89.3 °F 64.5 °F 29.84 in SSE 1.2 mph 1.2 mph 44 % 0.00 in
12:13 90.3 °F 64.8 °F 29.85 in ESE 1.2 mph 1.2 mph 43 % 0.00 in
12:18 90.6 °F 65.7 °F 29.84 in West 2.3 mph 2.3 mph 44 % 0.00 in
12:23 90.6 °F 66.3 °F 29.84 in NNW 1.2 mph 1.2 mph 45 % 0.00 in
12:28 90.7 °F 65.1 °F 29.84 in NNW 3.5 mph 3.5 mph 43 % 0.00 in
12:33 91.4 °F 64.4 °F 29.84 in SSW 2.3 mph 2.3 mph 41 % 0.00 in
12:38 91.6 °F 64.6 °F 29.84 in East 2.3 mph 2.3 mph 41 % 0.00 in
12:43 91.8 °F 63.3 °F 29.84 in NW 3.5 mph 3.5 mph 39 % 0.00 in
12:48 91.3 °F 63.6 °F 29.83 in NNW 2.3 mph 2.3 mph 40 % 0.00 in
12:53 91.8 °F 63.3 °F 29.83 in NW 2.3 mph 2.3 mph 39 % 0.00 in
12:58 92.2 °F 63.7 °F 29.83 in NNW 2.3 mph 2.3 mph 39 % 0.00 in
13:03 92.2 °F 62.9 °F 29.83 in North 2.3 mph 2.3 mph 38 % 0.00 in
13:08 92.2 °F 62.9 °F 29.83 in WNW 2.3 mph 2.3 mph 38 % 0.00 in
13:13 92.5 °F 63.9 °F 29.83 in NW 2.3 mph 2.3 mph 39 % 0.00 in
13:18 92.9 °F 62.8 °F 29.83 in NW 2.3 mph 2.3 mph 37 % 0.00 in
13:23 92.9 °F 63.6 °F 29.82 in NW 1.2 mph 1.2 mph 38 % 0.00 in
13:28 93.8 °F 65.1 °F 29.82 in NW 2.3 mph 2.3 mph 39 % 0.00 in
13:33 94.3 °F 65.5 °F 29.82 in WNW 2.3 mph 2.3 mph 39 % 0.00 in
13:38 94.5 °F 65.0 °F 29.82 in ENE 2.0 mph 2.0 mph 38 % 0.00 in
13:43 95.0 °F 63.9 °F 29.81 in SSE 3.5 mph 3.5 mph 36 % 0.00 in
13:48 95.0 °F 63.1 °F 29.81 in NW 2.3 mph   35 % 0.00 in
13:53 95.3 °F 63.3 °F 29.81 in SE 1.2 mph 1.2 mph 35 % 0.00 in
13:58 96.0 °F 63.9 °F 29.81 in NW 1.2 mph 1.2 mph 35 % 0.00 in
14:03 95.6 °F 64.4 °F 29.80 in ESE 5.8 mph 5.8 mph 36 % 0.00 in
14:08 96.1 °F 62.3 °F 29.80 in WSW 2.3 mph 2.3 mph 33 % 0.00 in
14:13 95.9 °F 62.2 °F 29.80 in North 2.3 mph 2.3 mph 33 % 0.00 in
14:18 96.2 °F 64.1 °F 29.80 in NNW 3.5 mph 3.5 mph 35 % 0.00 in
14:23 96.6 °F 61.0 °F 29.80 in NE 3.5 mph 3.5 mph 31 % 0.00 in
14:28 97.2 °F 60.6 °F 29.80 in West 3.0 mph 3.0 mph 30 % 0.00 in
14:33 97.0 °F 60.4 °F 29.80 in NE 3.5 mph   30 % 0.00 in
14:39 97.3 °F 60.7 °F 29.79 in NNW 1.2 mph 1.4 mph 30 % 0.00 in
14:44 97.3 °F 61.6 °F 29.79 in NW 3.0 mph 3.0 mph 31 % 0.00 in
14:49 97.0 °F 61.4 °F 29.79 in ESE 3.5 mph 3.5 mph 31 % 0.00 in
14:54 97.7 °F 62.0 °F 29.78 in NNE 5.0 mph 5.0 mph 31 % 0.00 in
14:59 97.2 °F 60.6 °F 29.78 in NW 3.5 mph 3.5 mph 30 % 0.00 in
15:04 97.4 °F 61.7 °F 29.78 in NE 1.2 mph 1.2 mph 31 % 0.00 in
15:09 97.6 °F 62.8 °F 29.78 in NW 2.3 mph 2.3 mph 32 % 0.00 in
15:14 97.6 °F 62.8 °F 29.78 in WNW 3.5 mph 3.5 mph 32 % 0.00 in
15:19 97.1 °F 61.4 °F 29.78 in WNW 4.6 mph 4.6 mph 31 % 0.00 in
15:24 96.6 °F 61.0 °F 29.77 in NW 2.3 mph 2.3 mph 31 % 0.00 in
15:29 96.8 °F 62.1 °F 29.77 in WSW 5.8 mph 5.8 mph 32 % 0.00 in
15:34 96.8 °F 61.2 °F 29.77 in WNW 4.0 mph 4.0 mph 31 % 0.00 in
15:39 97.0 °F 61.4 °F 29.77 in NW 4.6 mph 4.6 mph 31 % 0.00 in
15:44 96.9 °F 61.3 °F 29.77 in NW 3.5 mph 3.5 mph 31 % 0.00 in
15:49 97.2 °F 60.6 °F 29.76 in NW 3.5 mph 3.5 mph 30 % 0.00 in
15:54 97.4 °F 63.5 °F 29.76 in West 5.8 mph 5.8 mph 33 % 0.00 in
20:53 82.5 °F 64.7 °F 29.75 in Calm     55 % 0.00 in
20:58 82.1 °F 63.8 °F 29.75 in Calm     54 % 0.00 in
21:03 81.7 °F 64.0 °F 29.75 in Calm     55 % 0.00 in
21:08 81.7 °F 64.0 °F 29.75 in Calm     55 % 0.00 in
21:13 81.6 °F 63.9 °F 29.75 in Calm     55 % 0.00 in
21:18 81.5 °F 63.3 °F 29.75 in Calm     54 % 0.00 in
21:23 81.6 °F 63.9 °F 29.75 in Calm     55 % 0.00 in
21:28 81.5 °F 63.8 °F 29.76 in Calm     55 % 0.00 in
21:34 81.5 °F 63.8 °F 29.76 in Calm     55 % 0.00 in
21:39 81.5 °F 63.8 °F 29.76 in Calm     55 % 0.00 in
21:44 81.3 °F 64.6 °F 29.76 in Calm     57 % 0.00 in
21:49 81.1 °F 64.4 °F 29.76 in Calm     57 % 0.00 in
21:54 81.0 °F 64.3 °F 29.76 in Calm     57 % 0.00 in
21:59 81.1 °F 64.4 °F 29.77 in Calm     57 % 0.00 in
22:04 81.1 °F 64.4 °F 29.77 in Calm     57 % 0.00 in
22:09 80.9 °F 64.7 °F 29.77 in Calm     58 % 0.00 in
22:14 80.6 °F 64.5 °F 29.77 in Calm     58 % 0.00 in
22:19 80.2 °F 64.6 °F 29.77 in Calm     59 % 0.00 in
22:24 79.9 °F 65.2 °F 29.77 in Calm     61 % 0.00 in
22:29 79.6 °F 64.0 °F 29.77 in Calm     59 % 0.00 in
22:34 79.4 °F 63.8 °F 29.77 in Calm     59 % 0.00 in
22:39 79.1 °F 64.0 °F 29.77 in Calm     60 % 0.00 in
22:44 78.9 °F 64.3 °F 29.77 in Calm     61 % 0.00 in
22:49 78.6 °F 64.5 °F 29.77 in Calm     62 % 0.00 in
22:54 78.3 °F 64.7 °F 29.77 in Calm     63 % 0.00 in
22:59 77.9 °F 65.6 °F 29.77 in Calm     66 % 0.00 in
23:04 77.6 °F 64.9 °F 29.77 in Calm     65 % 0.00 in
23:09 77.2 °F 65.0 °F 29.77 in Calm     66 % 0.00 in
23:14 77.0 °F 64.3 °F 29.77 in Calm     65 % 0.00 in
23:19 76.8 °F 64.6 °F 29.77 in Calm     66 % 0.00 in
23:24 76.6 °F 64.0 °F 29.77 in Calm     65 % 0.00 in
23:29 76.6 °F 64.4 °F 29.77 in Calm     66 % 0.00 in
23:34 76.4 °F 63.8 °F 29.77 in Calm     65 % 0.00 in
23:39 76.3 °F 63.7 °F 29.77 in Calm     65 % 0.00 in
23:44 76.4 °F 63.8 °F 29.77 in Calm     65 % 0.00 in
23:49 76.4 °F 64.2 °F 29.77 in Calm     66 % 0.00 in
23:54 76.2 °F 64.4 °F 29.77 in Calm     67 % 0.00 in
23:59 75.9 °F 64.2 °F 29.77 in Calm     67 % 0.00 in
Park Place, Exeter, Tulare County, California, USA
Compliments of Weather Underground - 2.5 mb